Time;durP1;ratioP1;P1;durP2;ratioP2;P2;SDS_P1;SDS_P2;PMS_P1;PMS_P2;Temp;Humidity;BMP_temperature;BMP_pressure;BME280_temperature;BME280_humidity;BME280_pressure;Samples;Min_cycle;Max_cycle;Signal;HPM_P1;HPM_P2
2022/09/04 00:00:57;;;;;;;5.17;4.30;;;;;;;18.59;95.39;98117.63;4184433;28;20629;-86
2022/09/04 00:03:14;;;;;;;5.10;4.60;;;;;;;18.56;95.17;98115.31;4184488;28;20637;-86
2022/09/04 00:05:22;;;;;;;5.00;4.10;;;;;;;18.54;95.42;98123.38;4180229;28;20695;-86
2022/09/04 00:07:28;;;;;;;7.23;4.47;;;;;;;18.54;95.82;98114.63;4170784;28;21557;-86
2022/09/04 00:09:37;;;;;;;4.87;4.10;;;;;;;18.52;96.02;98119.22;4181882;28;21157;-86
2022/09/04 00:11:47;;;;;;;4.70;4.07;;;;;;;18.44;96.18;98119.16;4199259;28;20647;-85
2022/09/04 00:13:56;;;;;;;5.33;4.40;;;;;;;18.38;96.88;98121.59;4179208;28;20714;-86
2022/09/04 00:16:08;;;;;;;4.97;3.80;;;;;;;18.36;96.69;98124.38;4169729;28;20645;-86
2022/09/04 00:18:15;;;;;;;5.10;4.53;;;;;;;18.33;96.62;98124.69;4182292;28;20982;-86
2022/09/04 00:20:28;;;;;;;6.10;4.20;;;;;;;18.32;96.54;98120.38;4183885;28;20656;-86
2022/09/04 00:22:36;;;;;;;5.67;4.63;;;;;;;18.30;95.74;98119.72;4183966;28;20750;-86
2022/09/04 00:24:42;;;;;;;5.30;4.00;;;;;;;18.27;95.84;98127.09;4178110;28;20632;-86
2022/09/04 00:26:51;;;;;;;4.90;3.80;;;;;;;18.25;95.43;98124.63;4184265;28;21225;-86
2022/09/04 00:28:58;;;;;;;4.37;3.80;;;;;;;18.24;96.08;98124.78;4180882;28;20637;-85
2022/09/04 00:31:12;;;;;;;5.00;3.70;;;;;;;18.22;96.41;98126.72;4181537;28;20844;-86
2022/09/04 00:33:20;;;;;;;4.40;4.00;;;;;;;18.18;95.29;98120.09;4168821;28;21136;-87
2022/09/04 00:35:30;;;;;;;4.67;4.20;;;;;;;18.15;95.18;98123.03;4182517;28;20617;-86
2022/09/04 00:37:35;;;;;;;5.63;3.77;;;;;;;18.11;95.11;98126.91;4182911;28;20633;-86
2022/09/04 00:39:41;;;;;;;4.00;3.60;;;;;;;18.08;94.87;98124.56;4166886;28;20639;-86
2022/09/04 00:41:55;;;;;;;4.37;3.80;;;;;;;18.03;94.82;98127.66;4180447;28;20642;-86
2022/09/04 00:44:20;;;;;;;6.13;4.50;;;;;;;18.00;94.86;98122.66;4165199;28;20688;-85
2022/09/04 00:46:41;;;;;;;4.27;3.67;;;;;;;17.98;94.86;98126.44;4166395;28;20628;-86
2022/09/04 00:49:02;;;;;;;7.40;4.03;;;;;;;17.94;95.16;98133.00;4181783;28;20642;-86
2022/09/04 00:51:17;;;;;;;4.73;4.17;;;;;;;17.91;94.79;98129.84;4178762;28;20615;-86
2022/09/04 00:53:36;;;;;;;4.77;4.23;;;;;;;17.87;94.60;98139.84;4177674;28;20797;-86
2022/09/04 00:55:51;;;;;;;5.17;4.07;;;;;;;17.85;94.64;98139.16;4163802;28;20626;-85
2022/09/04 00:58:20;;;;;;;5.23;4.73;;;;;;;17.83;95.01;98142.91;4176336;28;20633;-85
2022/09/04 01:00:26;;;;;;;4.30;3.90;;;;;;;17.79;94.31;98139.75;4179849;28;20645;-86
2022/09/04 01:02:38;;;;;;;4.60;4.10;;;;;;;17.77;94.64;98143.50;4159240;28;20921;-86
2022/09/04 01:04:43;;;;;;;5.37;3.90;;;;;;;17.76;94.84;98141.88;4181224;28;20727;-86
2022/09/04 01:06:53;;;;;;;5.43;4.07;;;;;;;17.76;95.35;98149.78;4177243;28;20678;-85
2022/09/04 01:09:11;;;;;;;5.03;4.47;;;;;;;17.74;95.27;98147.28;4182461;28;20664;-85
2022/09/04 01:11:18;;;;;;;4.43;4.00;;;;;;;17.72;95.17;98143.13;4178198;28;20628;-86
2022/09/04 01:13:25;;;;;;;4.87;4.37;;;;;;;17.70;95.00;98148.56;4182626;28;20683;-86
2022/09/04 01:15:36;;;;;;;4.80;4.30;;;;;;;17.68;95.41;98154.94;4178969;28;20653;-85
2022/09/04 01:17:47;;;;;;;4.43;4.00;;;;;;;17.65;95.55;98161.38;4177511;28;21234;-86
2022/09/04 01:19:58;;;;;;;4.13;3.73;;;;;;;17.63;94.78;98162.47;4181152;28;21190;-85
2022/09/04 01:22:41;;;;;;;5.33;4.40;;;;;;;17.60;95.25;98162.78;4197313;28;21252;-85
2022/09/04 01:25:08;;;;;;;5.90;4.67;;;;;;;17.57;95.08;98163.88;4169951;28;20633;-85
2022/09/04 01:27:17;;;;;;;5.70;4.03;;;;;;;17.58;95.32;98165.56;4182394;28;20640;-85
2022/09/04 01:29:27;;;;;;;4.13;3.73;;;;;;;17.55;95.34;98162.38;4178511;28;20750;-85
2022/09/04 01:31:36;;;;;;;5.00;4.40;;;;;;;17.52;95.07;98165.31;4180242;28;20637;-85
2022/09/04 01:33:45;;;;;;;4.20;3.80;;;;;;;17.55;94.99;98175.56;4160081;28;20686;-86
2022/09/04 01:35:54;;;;;;;4.27;3.87;;;;;;;17.52;95.44;98167.94;4176175;28;20648;-86
2022/09/04 01:38:03;;;;;;;4.90;4.27;;;;;;;17.50;95.23;98170.75;4180517;28;20633;-86
2022/09/04 01:40:19;;;;;;;4.57;4.17;;;;;;;17.47;95.27;98173.66;4180517;28;20665;-86
2022/09/04 01:42:30;;;;;;;4.93;4.20;;;;;;;17.43;94.54;98174.09;4178446;28;20686;-86
2022/09/04 01:44:33;;;;;;;4.13;3.70;;;;;;;17.39;95.19;98178.00;4178086;28;20727;-85
2022/09/04 01:46:45;;;;;;;5.30;4.37;;;;;;;17.37;94.61;98184.41;4178701;28;21025;-85
2022/09/04 01:48:54;;;;;;;4.70;4.20;;;;;;;17.35;94.55;98179.28;4174202;28;20991;-85
2022/09/04 01:51:03;;;;;;;8.30;4.57;;;;;;;17.33;95.12;98177.75;4174458;28;20634;-85
2022/09/04 01:53:10;;;;;;;5.00;4.20;;;;;;;17.31;94.22;98185.78;4178290;28;21047;-85
2022/09/04 01:55:19;;;;;;;5.00;4.17;;;;;;;17.30;95.44;98191.22;4178461;28;20679;-85
2022/09/04 01:57:39;;;;;;;5.97;4.73;;;;;;;17.28;95.17;98185.25;4179213;28;20621;-85
2022/09/04 01:59:53;;;;;;;4.20;3.80;;;;;;;17.26;95.29;98188.03;4176997;28;20750;-85
2022/09/04 02:02:02;;;;;;;4.93;4.43;;;;;;;17.23;94.56;98185.69;4166981;28;20636;-85
2022/09/04 02:04:13;;;;;;;5.60;4.40;;;;;;;17.23;95.44;98195.38;4175361;28;21185;-85
2022/09/04 02:06:26;;;;;;;6.10;3.90;;;;;;;17.20;94.65;98182.44;4186040;28;20631;-85
2022/09/04 02:08:41;;;;;;;4.20;3.80;;;;;;;17.19;94.75;98186.91;4174447;28;20743;-85
2022/09/04 02:10:50;;;;;;;4.20;3.80;;;;;;;17.18;94.90;98185.22;4181122;28;20646;-85
2022/09/04 02:13:06;;;;;;;4.63;3.97;;;;;;;17.16;94.46;98186.38;4196372;28;20637;-85
2022/09/04 02:15:12;;;;;;;5.27;3.80;;;;;;;17.14;94.67;98183.06;4182438;28;20688;-85
2022/09/04 02:17:20;;;;;;;4.37;3.60;;;;;;;17.10;94.76;98190.38;4178170;28;20624;-85
2022/09/04 02:19:34;;;;;;;5.73;4.53;;;;;;;17.06;94.83;98190.81;4177986;28;20684;-86
2022/09/04 02:21:42;;;;;;;5.30;3.80;;;;;;;17.04;94.60;98195.41;4181079;28;20739;-85
2022/09/04 02:23:51;;;;;;;5.10;4.30;;;;;;;17.02;95.51;98200.00;4163653;28;20626;-85
2022/09/04 02:25:59;;;;;;;7.13;4.63;;;;;;;17.02;95.39;98192.09;4177970;28;20652;-85
2022/09/04 02:28:15;;;;;;;6.13;4.73;;;;;;;17.01;95.37;98193.88;4178816;28;20643;-85
2022/09/04 02:30:20;;;;;;;5.00;4.40;;;;;;;17.02;96.20;98200.00;4181675;28;21182;-85
2022/09/04 02:32:27;;;;;;;4.63;4.23;;;;;;;17.00;95.78;98196.66;4178378;28;20647;-85
2022/09/04 02:34:39;;;;;;;5.00;3.80;;;;;;;16.98;94.73;98204.69;4177765;28;21218;-85
2022/09/04 02:36:47;;;;;;;4.53;4.00;;;;;;;16.96;94.32;98202.34;4163960;28;20653;-85
2022/09/04 02:38:59;;;;;;;4.70;4.20;;;;;;;16.92;94.96;98198.34;4179992;28;20678;-85
2022/09/04 02:41:10;;;;;;;5.90;4.60;;;;;;;16.90;94.70;98200.28;4174560;28;20644;-85
2022/09/04 02:43:38;;;;;;;6.53;4.20;;;;;;;16.89;96.07;98198.63;4168349;28;20789;-85
2022/09/04 02:45:45;;;;;;;6.00;4.00;;;;;;;16.85;94.69;98198.06;4161649;28;20632;-85
2022/09/04 02:47:53;;;;;;;4.63;4.00;;;;;;;16.84;94.46;98206.09;4183912;28;20716;-86
2022/09/04 02:50:02;;;;;;;6.23;4.60;;;;;;;16.84;95.44;98214.00;4179903;28;20777;-85
2022/09/04 02:52:15;;;;;;;4.70;4.20;;;;;;;16.82;94.22;98195.72;4187393;28;20770;-86
2022/09/04 02:54:29;;;;;;;5.83;5.00;;;;;;;16.82;94.89;98208.88;4184436;28;20636;-85
2022/09/04 02:56:40;;;;;;;4.93;4.10;;;;;;;16.84;95.04;98211.38;4185766;28;20729;-85
2022/09/04 02:59:01;;;;;;;4.90;3.93;;;;;;;16.82;95.97;98208.88;4183692;28;20643;-85
2022/09/04 03:01:10;;;;;;;5.47;4.60;;;;;;;16.80;95.97;98221.38;4166472;28;20628;-85
2022/09/04 03:03:17;;;;;;;5.03;4.53;;;;;;;16.80;95.16;98215.28;4182651;28;20639;-85
2022/09/04 03:05:23;;;;;;;5.40;4.40;;;;;;;16.77;96.72;98213.75;4181791;28;20630;-85
2022/09/04 03:07:30;;;;;;;5.33;4.77;;;;;;;16.74;96.70;98221.94;4182394;28;20636;-85
2022/09/04 03:09:39;;;;;;;4.60;4.00;;;;;;;16.71;96.12;98214.31;4179764;28;22833;-85
2022/09/04 03:11:46;;;;;;;7.03;4.13;;;;;;;16.68;94.87;98211.94;4183921;28;20647;-85
2022/09/04 03:13:56;;;;;;;5.33;4.00;;;;;;;16.65;95.66;98220.13;4178232;28;20626;-85
2022/09/04 03:16:05;;;;;;;5.03;4.10;;;;;;;16.63;94.54;98213.34;4170229;28;21313;-85
2022/09/04 03:18:14;;;;;;;4.33;3.93;;;;;;;16.61;94.02;98220.53;4180309;28;20680;-85
2022/09/04 03:20:22;;;;;;;5.93;4.13;;;;;;;16.61;94.96;98216.13;4182901;28;20647;-85
2022/09/04 03:22:28;;;;;;;4.97;4.43;;;;;;;16.58;93.95;98216.41;4184767;28;21420;-85
2022/09/04 03:24:36;;;;;;;5.50;4.23;;;;;;;16.58;95.29;98208.50;4178325;28;20695;-85
2022/09/04 03:26:41;;;;;;;5.20;4.17;;;;;;;16.55;96.07;98208.78;4181235;28;20630;-85
2022/09/04 03:28:58;;;;;;;4.60;4.00;;;;;;;16.54;94.39;98215.00;4177856;28;20651;-85
2022/09/04 03:31:16;;;;;;;4.30;3.90;;;;;;;16.51;93.59;98215.28;4182360;28;20657;-85
2022/09/04 03:33:23;;;;;;;4.53;4.13;;;;;;;16.50;95.43;98218.88;4173547;28;20666;-86
2022/09/04 03:35:31;;;;;;;4.27;3.50;;;;;;;16.49;95.48;98210.28;4182037;28;20759;-85
2022/09/04 03:37:47;;;;;;;8.40;4.27;;;;;;;16.45;95.30;98217.63;4180700;28;20976;-85
2022/09/04 03:40:00;;;;;;;4.57;4.10;;;;;;;16.44;93.54;98217.78;4183213;28;20643;-85
2022/09/04 03:42:07;;;;;;;4.20;3.80;;;;;;;16.40;94.17;98216.38;4180857;28;20678;-85
2022/09/04 03:44:21;;;;;;;5.57;4.43;;;;;;;16.37;95.02;98216.66;4183169;28;20771;-87
2022/09/04 03:46:35;;;;;;;4.80;4.00;;;;;;;16.36;94.27;98218.47;4162503;28;21055;-87
2022/09/04 03:48:51;;;;;;;4.30;3.90;;;;;;;16.34;94.90;98223.03;4179790;28;20715;-85
2022/09/04 03:50:57;;;;;;;4.80;3.97;;;;;;;16.32;94.84;98226.75;4166538;28;20642;-88
2022/09/04 03:53:05;;;;;;;5.23;4.40;;;;;;;16.30;93.84;98226.91;4169436;28;21362;-85
2022/09/04 03:55:32;;;;;;;5.57;4.17;;;;;;;16.27;95.10;98223.72;4182740;28;20658;-85
2022/09/04 03:57:44;;;;;;;7.03;4.77;;;;;;;16.27;93.59;98226.34;4164277;28;20711;-85
2022/09/04 04:00:03;;;;;;;4.73;4.00;;;;;;;16.25;95.10;98226.50;4164699;28;20643;-85
2022/09/04 04:02:26;;;;;;;5.17;4.70;;;;;;;16.26;93.84;98230.75;4181105;28;20650;-85
2022/09/04 04:05:26;;;;;;;5.20;4.37;;;;;;;16.23;96.02;98232.84;4177399;28;20628;-86
2022/09/04 04:07:34;;;;;;;6.30;4.63;;;;;;;16.18;94.92;98225.31;4133004;28;20637;-86
2022/09/04 04:09:59;;;;;;;5.00;4.50;;;;;;;16.12;94.42;98236.38;4128925;28;20694;-85
2022/09/04 04:12:17;;;;;;;4.63;4.13;;;;;;;16.09;94.61;98238.47;4133126;28;20647;-85
2022/09/04 04:14:50;;;;;;;5.73;4.37;;;;;;;16.05;94.75;98232.63;4182035;28;20627;-86
2022/09/04 04:17:05;;;;;;;4.60;4.20;;;;;;;16.05;92.92;98234.44;4163893;28;20652;-86
2022/09/04 04:19:25;;;;;;;4.80;4.03;;;;;;;16.03;94.82;98239.81;4163530;28;20998;-85
2022/09/04 04:21:35;;;;;;;5.43;4.30;;;;;;;16.04;94.41;98245.91;4201108;28;21576;-85
2022/09/04 04:23:56;;;;;;;5.20;4.40;;;;;;;16.03;93.28;98247.72;4179634;28;20706;-86
2022/09/04 04:26:08;;;;;;;4.97;4.47;;;;;;;16.02;95.24;98248.69;4181020;28;20742;-86
2022/09/04 04:28:24;;;;;;;4.10;3.70;;;;;;;16.03;94.31;98254.78;4177124;28;20634;-85
2022/09/04 04:30:33;;;;;;;5.27;4.17;;;;;;;16.02;93.81;98257.56;4184984;28;20712;-85
2022/09/04 04:32:54;;;;;;;4.63;3.80;;;;;;;16.02;94.91;98257.56;4180586;28;20753;-85
2022/09/04 04:35:10;;;;;;;4.30;3.90;;;;;;;16.02;94.44;98262.81;4170504;28;20651;-86
2022/09/04 04:37:20;;;;;;;4.57;3.97;;;;;;;16.04;94.12;98265.19;4185392;28;20625;-86
2022/09/04 04:39:30;;;;;;;4.40;3.83;;;;;;;16.03;95.16;98267.94;4198692;28;20652;-86
2022/09/04 04:44:09;;;;;;;4.43;3.97;;;;;;;16.00;95.70;98270.84;4183127;28;20615;-85
2022/09/04 04:46:18;;;;;;;3.87;3.43;;;;;;;15.99;94.26;98281.50;4167556;28;20633;-85
2022/09/04 04:48:56;;;;;;;4.20;3.70;;;;;;;15.99;95.73;98279.69;4180918;28;20636;-86
2022/09/04 04:51:08;;;;;;;5.97;4.30;;;;;;;15.98;95.18;98283.28;4177634;28;20643;-85
2022/09/04 04:53:16;;;;;;;4.80;3.93;;;;;;;15.98;93.69;98288.53;4180878;28;20623;-85
2022/09/04 04:55:30;;;;;;;4.93;4.43;;;;;;;15.97;95.79;98286.06;4182277;28;21110;-85
2022/09/04 04:57:41;;;;;;;6.17;4.40;;;;;;;15.94;94.19;98292.44;4164763;28;21160;-85
2022/09/04 04:59:53;;;;;;;8.30;4.50;;;;;;;15.92;95.16;98293.50;4164348;28;20679;-86
2022/09/04 05:02:03;;;;;;;6.07;4.23;;;;;;;15.94;95.21;98297.69;4181625;28;21024;-85
2022/09/04 05:04:17;;;;;;;4.63;3.83;;;;;;;15.98;94.70;98296.44;4177235;28;21055;-85
2022/09/04 05:06:26;;;;;;;5.20;4.07;;;;;;;16.07;93.51;98293.00;4178554;28;21305;-86
2022/09/04 05:08:37;;;;;;;5.27;4.23;;;;;;;16.16;92.97;98303.59;4178389;28;20685;-85
2022/09/04 05:10:43;;;;;;;4.80;4.30;;;;;;;16.27;93.28;98310.59;4182084;28;21211;-85
2022/09/04 05:12:54;;;;;;;5.57;4.70;;;;;;;16.38;94.11;98313.94;4181810;28;20878;-86
2022/09/04 05:15:02;;;;;;;4.50;4.07;;;;;;;16.49;94.32;98321.72;4165329;28;20650;-85
2022/09/04 05:17:17;;;;;;;4.33;3.93;;;;;;;16.60;92.51;98327.69;4165990;28;20741;-85
2022/09/04 05:19:26;;;;;;;4.97;4.10;;;;;;;16.73;92.32;98336.19;4161370;28;21171;-85
2022/09/04 05:21:36;;;;;;;4.83;4.00;;;;;;;16.85;92.05;98336.88;4168940;28;20614;-85
2022/09/04 05:23:46;;;;;;;6.43;4.63;;;;;;;16.96;91.53;98332.34;4177821;28;21422;-86
2022/09/04 05:25:53;;;;;;;4.57;3.80;;;;;;;17.09;91.61;98336.38;4181810;28;20643;-86
2022/09/04 05:28:03;;;;;;;4.33;3.73;;;;;;;17.22;91.28;98346.66;4164590;28;21225;-86
2022/09/04 05:30:10;;;;;;;6.37;3.97;;;;;;;17.35;91.90;98350.69;4178477;28;20661;-86
2022/09/04 05:32:20;;;;;;;5.40;4.10;;;;;;;17.46;91.76;98367.16;4179473;28;20636;-85
2022/09/04 05:34:33;;;;;;;4.70;3.73;;;;;;;17.58;90.40;98367.88;4178858;28;20692;-86
2022/09/04 05:36:45;;;;;;;4.60;4.10;;;;;;;17.72;90.12;98370.88;4186005;28;20652;-86
2022/09/04 05:38:57;;;;;;;4.87;4.00;;;;;;;17.87;89.26;98371.28;4182021;28;20628;-86
2022/09/04 05:41:05;;;;;;;4.30;3.90;;;;;;;17.95;88.21;98374.84;4168305;28;20636;-86
2022/09/04 05:43:19;;;;;;;5.20;4.70;;;;;;;18.03;87.50;98365.25;4196478;28;20634;-86
2022/09/04 05:45:24;;;;;;;4.90;4.40;;;;;;;18.07;86.62;98377.19;4168291;28;20637;-86
2022/09/04 05:47:34;;;;;;;6.07;4.90;;;;;;;18.12;86.30;98376.78;4183572;28;20970;-86
2022/09/04 05:49:58;;;;;;;5.10;4.60;;;;;;;18.16;86.09;98378.16;4186357;28;20632;-86
2022/09/04 05:52:16;;;;;;;5.60;4.70;;;;;;;18.30;86.73;98388.28;4178353;28;20700;-85
2022/09/04 05:54:45;;;;;;;5.27;4.63;;;;;;;18.48;85.63;98390.00;4183309;28;20645;-86
2022/09/04 05:57:21;;;;;;;4.83;4.30;;;;;;;18.68;85.82;98391.56;4141125;28;20664;-86
2022/09/04 05:59:42;;;;;;;4.70;4.20;;;;;;;18.84;84.98;98397.88;4163131;28;21217;-86
2022/09/04 06:02:01;;;;;;;4.97;4.17;;;;;;;18.97;83.87;98400.97;4176670;28;20668;-86
2022/09/04 06:04:47;;;;;;;4.70;4.20;;;;;;;19.10;83.36;98397.03;4177672;28;20638;-86
2022/09/04 06:06:57;;;;;;;4.40;3.87;;;;;;;19.26;84.46;98409.59;4165809;28;20640;-86
2022/09/04 06:09:28;;;;;;;4.00;3.60;;;;;;;19.40;83.11;98408.06;4184383;28;21099;-86
2022/09/04 06:11:50;;;;;;;4.20;3.50;;;;;;;19.56;84.21;98408.25;4182524;28;20634;-86
2022/09/04 06:14:05;;;;;;;4.63;3.80;;;;;;;19.69;83.40;98408.66;4178700;28;20639;-86
2022/09/04 06:16:20;;;;;;;4.73;3.60;;;;;;;19.78;83.55;98415.69;4166622;28;21203;-86
2022/09/04 06:18:42;;;;;;;4.40;4.00;;;;;;;19.95;82.79;98415.72;4195924;28;20621;-86
2022/09/04 06:21:00;;;;;;;4.23;3.83;;;;;;;20.10;81.67;98423.91;4182472;28;20652;-86
2022/09/04 06:23:20;;;;;;;4.30;3.90;;;;;;;20.25;81.04;98425.00;4181640;28;20634;-86
2022/09/04 06:25:48;;;;;;;4.67;3.60;;;;;;;20.40;80.81;98425.13;4177578;28;21306;-86
2022/09/04 06:28:08;;;;;;;4.07;3.67;;;;;;;20.57;81.91;98426.84;4171657;28;20636;-86
2022/09/04 06:30:12;;;;;;;4.77;3.50;;;;;;;20.77;81.52;98430.94;4178327;28;20685;-86
2022/09/04 06:32:34;;;;;;;3.70;3.30;;;;;;;20.89;80.03;98429.69;4184040;28;20683;-86
2022/09/04 06:34:55;;;;;;;4.10;3.70;;;;;;;21.05;80.02;98433.22;4186426;28;21570;-86
2022/09/04 06:37:10;;;;;;;4.43;3.80;;;;;;;21.20;80.71;98436.94;4187238;28;20662;-86
2022/09/04 06:39:30;;;;;;;4.73;3.63;;;;;;;21.36;78.94;98437.78;4184104;28;21223;-86
2022/09/04 06:41:45;;;;;;;6.67;3.80;;;;;;;21.46;79.63;98438.50;4168443;28;20976;-86
2022/09/04 06:43:58;;;;;;;3.93;3.53;;;;;;;21.57;79.21;98446.13;4167034;28;21049;-86
2022/09/04 06:46:10;;;;;;;4.20;3.67;;;;;;;21.69;79.21;98446.66;4168344;28;21270;-86
2022/09/04 06:48:26;;;;;;;4.00;3.37;;;;;;;21.82;79.13;98455.81;4166873;28;20949;-86
2022/09/04 06:50:36;;;;;;;3.73;3.40;;;;;;;21.99;79.43;98457.47;4164875;28;21658;-86
2022/09/04 06:52:47;;;;;;;4.37;3.87;;;;;;;22.10;79.10;98454.47;4166159;28;20711;-86
2022/09/04 06:54:56;;;;;;;4.27;3.87;;;;;;;;;;4183908;28;20640;-87
2022/09/04 06:57:14;;;;;;;3.70;3.40;;;;;;;22.37;77.82;98462.94;4171282;28;20649;-87
2022/09/04 06:59:53;;;;;;;4.67;4.20;;;;;;;22.42;78.85;98453.47;4167915;28;20629;-87
2022/09/04 07:02:05;;;;;;;4.50;4.10;;;;;;;22.70;78.91;98461.88;4158717;28;20742;-86
2022/09/04 07:04:23;;;;;;;4.80;4.00;;;;;;;22.86;77.28;98462.66;4180841;28;20711;-86
2022/09/04 07:06:43;;;;;;;5.47;4.00;;;;;;;23.00;77.01;98468.13;4167870;28;21587;-87
2022/09/04 07:08:57;;;;;;;4.20;3.47;;;;;;;23.17;77.85;98460.88;4186974;28;20775;-86
2022/09/04 07:11:08;;;;;;;4.80;4.10;;;;;;;23.40;76.66;98470.59;4178799;28;20670;-86
2022/09/04 07:13:35;;;;;;;4.00;3.60;;;;;;;23.49;76.31;98464.22;4184620;28;20671;-87
2022/09/04 07:15:51;;;;;;;4.70;4.00;;;;;;;23.51;76.21;98468.34;4179632;28;20643;-86
2022/09/04 07:18:03;;;;;;;4.27;3.60;;;;;;;23.67;76.88;98465.63;4165407;28;20717;-88
2022/09/04 07:20:12;;;;;;;4.10;3.70;;;;;;;23.90;76.27;98477.94;4178529;28;20638;-85
2022/09/04 07:22:28;;;;;;;4.10;3.70;;;;;;;24.12;75.97;98484.31;4195101;28;20642;-86
2022/09/04 07:24:44;;;;;;;4.23;3.63;;;;;;;24.29;75.44;98486.63;4185233;28;21002;-86
2022/09/04 07:26:51;;;;;;;4.57;3.40;;;;;;;24.49;75.20;98485.16;4185860;28;20634;-86
2022/09/04 07:29:08;;;;;;;4.53;3.73;;;;;;;24.60;74.34;98490.03;4184707;28;20640;-86
2022/09/04 07:31:15;;;;;;;4.27;3.50;;;;;;;24.73;73.93;98491.91;4186579;28;20630;-86
2022/09/04 07:33:24;;;;;;;4.20;3.80;;;;;;;24.97;74.03;98498.81;4189084;28;20625;-86
2022/09/04 07:35:33;;;;;;;4.10;3.70;;;;;;;25.11;73.16;98501.53;4185575;28;20627;-86
2022/09/04 07:37:43;;;;;;;4.93;3.60;;;;;;;25.13;72.28;98491.47;4186440;28;20690;-86
2022/09/04 07:39:54;;;;;;;5.00;3.27;;;;;;;25.20;73.99;98493.22;4180075;28;21121;-86
2022/09/04 07:42:01;;;;;;;6.33;3.60;;;;;;;25.44;72.26;98490.25;4186999;28;20666;-86
2022/09/04 07:44:09;;;;;;;4.10;3.60;;;;;;;25.49;71.44;98485.16;4182228;28;20638;-86
2022/09/04 07:46:19;;;;;;;4.80;3.97;;;;;;;25.52;71.77;98479.44;4167265;28;20643;-86
2022/09/04 07:48:29;;;;;;;4.90;4.40;;;;;;;25.67;71.85;98489.09;4186969;28;20615;-88
2022/09/04 07:50:35;;;;;;;5.33;4.20;;;;;;;25.70;71.88;98488.72;4169048;28;20752;-87
2022/09/04 07:52:54;;;;;;;4.87;4.20;;;;;;;25.80;71.57;98488.41;4190579;28;20632;-88
2022/09/04 07:55:12;;;;;;;5.63;4.20;;;;;;;25.87;70.60;98500.03;4170678;28;21206;-87
2022/09/04 07:57:37;;;;;;;4.10;3.70;;;;;;;25.91;70.83;98499.44;4187229;28;20654;-88
2022/09/04 08:00:06;;;;;;;4.70;4.20;;;;;;;26.05;70.78;98503.91;4163503;28;20641;-88
2022/09/04 08:02:25;;;;;;;4.57;3.80;;;;;;;26.10;70.68;98502.31;4182425;28;20639;-88
2022/09/04 08:04:49;;;;;;;4.70;4.10;;;;;;;26.15;70.72;98505.25;4174509;28;20666;-88
2022/09/04 08:06:56;;;;;;;4.50;4.10;;;;;;;26.21;70.14;98511.69;4181415;28;20675;-87
2022/09/04 08:09:16;;;;;;;4.60;3.90;;;;;;;26.32;70.70;98513.88;4184709;28;20653;-88
2022/09/04 08:11:33;;;;;;;4.03;3.63;;;;;;;26.42;69.51;98511.72;4178049;28;20702;-88
2022/09/04 08:14:24;;;;;;;4.50;4.10;;;;;;;26.56;70.34;98525.00;4175337;28;20644;-88
2022/09/04 08:16:30;;;;;;;4.50;3.70;;;;;;;26.61;69.18;98517.19;4138671;28;20755;-88
2022/09/04 08:19:00;;;;;;;4.77;4.27;;;;;;;26.64;68.27;98522.16;4143370;28;20671;-88
2022/09/04 08:21:15;;;;;;;4.73;4.10;;;;;;;26.76;68.68;98509.91;4179284;28;21030;-87
2022/09/04 08:23:28;;;;;;;5.27;4.33;;;;;;;26.80;68.55;98521.91;4181434;28;20637;-84
2022/09/04 08:25:48;;;;;;;4.57;3.60;;;;;;;26.91;67.38;98524.88;4180482;28;21212;-90
2022/09/04 08:28:16;;;;;;;5.33;3.97;;;;;;;26.88;68.25;98519.91;4177054;28;20699;-88
2022/09/04 08:30:19;;;;;;;4.63;3.90;;;;;;;26.92;68.31;98521.19;4170987;28;20637;-83
2022/09/04 08:32:44;;;;;;;3.90;3.50;;;;;;;26.91;67.45;98527.56;4164752;28;20627;-85
2022/09/04 08:35:04;;;;;;;3.90;3.33;;;;;;;26.95;67.17;98533.38;4182549;28;20680;-85
2022/09/04 08:37:16;;;;;;;4.77;4.07;;;;;;;26.99;67.39;98534.63;4162263;28;20632;-85
2022/09/04 08:39:31;;;;;;;4.13;3.60;;;;;;;27.17;67.51;98533.09;4169723;28;20655;-85
2022/09/04 08:42:01;;;;;;;4.47;3.43;;;;;;;27.22;66.38;98542.19;4171874;28;20640;-85
2022/09/04 08:44:33;;;;;;;5.10;3.60;;;;;;;27.31;65.71;98543.69;4181465;28;21222;-85
2022/09/04 08:47:25;;;;;;;5.10;3.77;;;;;;;27.29;67.13;98539.53;4189212;28;20666;-85
2022/09/04 08:49:54;;;;;;;4.00;3.60;;;;;;;27.23;66.83;98535.81;4170799;28;20636;-85
2022/09/04 08:52:22;;;;;;;6.30;4.20;;;;;;;26.82;66.51;98522.50;4184726;28;20631;-85
2022/09/04 08:54:48;;;;;;;4.40;3.17;;;;;;;26.34;68.17;98517.19;4182967;28;20636;-85
2022/09/04 08:57:24;;;;;;;3.37;3.00;;;;;;;25.98;68.96;98511.06;4185415;28;20671;-85
2022/09/04 09:00:05;;;;;;;2.57;2.37;;;;;;;26.20;68.46;98518.06;4178405;28;20681;-85
2022/09/04 09:02:35;;;;;;;3.67;2.83;;;;;;;25.98;68.50;98518.22;4168564;28;20697;-86
2022/09/04 09:05:17;;;;;;;3.37;2.77;;;;;;;25.77;69.51;98524.41;4167152;28;20631;-85
2022/09/04 09:08:01;;;;;;;3.30;2.47;;;;;;;25.88;69.07;98523.06;4186167;28;20670;-85
2022/09/04 09:10:36;;;;;;;2.80;2.60;;;;;;;26.24;68.80;98524.69;4155225;28;20650;-85
2022/09/04 09:13:20;;;;;;;3.67;2.60;;;;;;;26.77;68.26;98527.63;4181737;28;20630;-85
2022/09/04 09:15:43;;;;;;;3.07;2.63;;;;;;;27.11;67.23;98533.91;4180405;28;20726;-85
2022/09/04 09:18:00;;;;;;;3.13;2.83;;;;;;;27.43;66.90;98541.28;4185142;28;21008;-85
2022/09/04 09:20:18;;;;;;;4.67;3.70;;;;;;;27.55;65.60;98530.63;4178479;28;20646;-85
2022/09/04 09:22:45;;;;;;;3.60;3.00;;;;;;;27.63;65.09;98529.63;4189706;28;20687;-85
2022/09/04 09:25:19;;;;;;;8.63;2.67;;;;;;;27.89;64.91;98535.94;4185392;28;20653;-86
2022/09/04 09:27:50;;;;;;;3.23;2.63;;;;;;;27.99;64.61;98533.69;4178670;28;21021;-86
2022/09/04 09:30:04;;;;;;;2.30;2.00;;;;;;;27.50;65.83;98524.25;4121348;28;20680;-85
2022/09/04 09:32:33;;;;;;;5.37;4.40;;;;;;;27.14;65.97;98530.81;4180473;28;20680;-85
2022/09/04 09:35:07;;;;;;;4.60;2.70;;;;;;;27.37;65.81;98523.31;4166491;28;20642;-85
2022/09/04 09:37:34;;;;;;;3.50;2.30;;;;;;;27.63;66.04;98510.88;4179964;28;22745;-86
2022/09/04 09:40:02;;;;;;;3.13;2.63;;;;;;;27.99;65.04;98527.50;4184989;28;21176;-86
2022/09/04 09:42:40;;;;;;;2.80;2.30;;;;;;;28.22;65.32;98518.06;4185773;28;20624;-86
2022/09/04 09:45:05;;;;;;;3.10;2.63;;;;;;;28.36;65.96;98523.25;4167740;28;20621;-86
2022/09/04 09:47:36;;;;;;;3.73;2.50;;;;;;;28.59;64.06;98523.69;4184647;28;20636;-86
2022/09/04 09:50:03;;;;;;;2.97;1.80;;;;;;;28.73;61.94;98528.03;4168052;28;20638;-86
2022/09/04 09:52:28;;;;;;;2.90;2.40;;;;;;;28.64;62.03;98518.50;4183322;28;20690;-85
2022/09/04 09:55:08;;;;;;;2.60;1.93;;;;;;;28.56;62.71;98516.03;4166548;28;21111;-85
2022/09/04 09:57:48;;;;;;;18.13;5.00;;;;;;;28.45;65.78;98516.66;4171702;28;20641;-85
2022/09/04 10:00:08;;;;;;;3.17;2.17;;;;;;;28.10;61.56;98509.81;4140302;28;20675;-86
2022/09/04 10:02:57;;;;;;;3.87;2.80;;;;;;;27.56;68.11;98504.66;4171766;28;21123;-86
2022/09/04 10:06:00;;;;;;;5.30;2.63;;;;;;;27.54;64.86;98504.88;4184092;28;20646;-85
2022/09/04 10:08:22;;;;;;;3.77;2.00;;;;;;;27.52;65.11;98503.41;4137144;28;20700;-85
2022/09/04 10:11:12;;;;;;;2.77;2.40;;;;;;;27.55;67.61;98497.66;4184472;28;20629;-86
2022/09/04 10:13:36;;;;;;;14.90;4.33;;;;;;;27.45;72.29;98497.16;4167916;28;20640;-86
2022/09/04 10:16:00;;;;;;;3.77;2.50;;;;;;;27.39;70.01;98497.13;4188238;28;21254;-86
2022/09/04 10:18:32;;;;;;;2.63;2.27;;;;;;;27.40;71.84;98502.28;4164003;28;20633;-86
2022/09/04 10:20:54;;;;;;;4.35;2.30;;;;;;;27.50;67.91;98497.44;4189508;28;20752;-85
2022/09/04 10:23:14;;;;;;;4.23;2.20;;;;;;;27.24;65.85;98491.91;4172134;28;20241;-86
2022/09/04 10:25:53;;;;;;;2.47;2.10;;;;;;;27.32;67.86;98491.75;4186797;28;20650;-85
2022/09/04 10:28:24;;;;;;;2.20;1.90;;;;;;;27.09;68.69;98496.56;4161752;28;21004;-86
2022/09/04 10:30:29;;;;;;;4.17;1.80;;;;;;;26.86;69.16;98486.28;4184035;28;20640;-85
2022/09/04 10:33:03;;;;;;;2.30;1.80;;;;;;;26.68;68.61;98481.44;4187673;28;20964;-85
2022/09/04 10:35:24;;;;;;;3.40;1.70;;;;;;;26.65;67.04;98483.69;4166662;28;21331;-86
2022/09/04 10:37:37;;;;;;;2.67;2.00;;;;;;;26.64;66.29;98473.97;4183329;28;20643;-85
2022/09/04 10:42:26;;;;;;;2.40;1.63;;;;;;;26.37;69.32;98482.00;4203105;28;20631;-84
2022/09/04 10:44:53;;;;;;;2.60;1.77;;;;;;;26.29;68.88;98474.94;4185068;28;20685;-85
2022/09/04 10:47:05;;;;;;;2.60;2.20;;;;;;;26.28;68.28;98478.66;4182653;28;20631;-86
2022/09/04 10:49:41;;;;;;;2.33;1.87;;;;;;;26.53;66.78;98477.19;4184154;28;20735;-85